sensor_id;sensor_type;location;lat;lon;timestamp;P1;durP1;ratioP1;P2;durP2;ratioP2
21503;SDS011;10913;51.992;9.228;2023-12-20T00:00:39;6.72;;;6.03;;
21503;SDS011;10913;51.992;9.228;2023-12-20T00:03:04;6.95;;;6.25;;
21503;SDS011;10913;51.992;9.228;2023-12-20T00:05:30;7.68;;;6.50;;
21503;SDS011;10913;51.992;9.228;2023-12-20T00:07:57;6.88;;;6.07;;
21503;SDS011;10913;51.992;9.228;2023-12-20T00:10:22;6.75;;;5.95;;
21503;SDS011;10913;51.992;9.228;2023-12-20T00:12:48;7.70;;;6.50;;
21503;SDS011;10913;51.992;9.228;2023-12-20T00:15:13;9.50;;;7.43;;
21503;SDS011;10913;51.992;9.228;2023-12-20T00:17:38;8.88;;;7.30;;
21503;SDS011;10913;51.992;9.228;2023-12-20T00:20:04;9.15;;;6.63;;
21503;SDS011;10913;51.992;9.228;2023-12-20T00:22:31;7.95;;;7.00;;
21503;SDS011;10913;51.992;9.228;2023-12-20T00:24:56;8.35;;;6.65;;
21503;SDS011;10913;51.992;9.228;2023-12-20T00:27:21;9.43;;;6.95;;
21503;SDS011;10913;51.992;9.228;2023-12-20T00:29:48;8.35;;;6.43;;
21503;SDS011;10913;51.992;9.228;2023-12-20T00:32:15;7.32;;;6.13;;
21503;SDS011;10913;51.992;9.228;2023-12-20T00:34:41;8.48;;;6.47;;
21503;SDS011;10913;51.992;9.228;2023-12-20T00:37:06;7.70;;;6.35;;
21503;SDS011;10913;51.992;9.228;2023-12-20T00:39:31;9.52;;;6.30;;
21503;SDS011;10913;51.992;9.228;2023-12-20T00:41:58;8.48;;;6.20;;
21503;SDS011;10913;51.992;9.228;2023-12-20T00:44:23;10.00;;;6.88;;
21503;SDS011;10913;51.992;9.228;2023-12-20T00:46:48;8.18;;;6.50;;
21503;SDS011;10913;51.992;9.228;2023-12-20T00:49:14;11.05;;;6.85;;
21503;SDS011;10913;51.992;9.228;2023-12-20T00:51:39;7.68;;;6.05;;
21503;SDS011;10913;51.992;9.228;2023-12-20T00:54:05;9.02;;;5.43;;
21503;SDS011;10913;51.992;9.228;2023-12-20T00:56:30;7.45;;;4.78;;
21503;SDS011;10913;51.992;9.228;2023-12-20T00:58:55;7.90;;;5.35;;
21503;SDS011;10913;51.992;9.228;2023-12-20T01:01:21;8.18;;;5.38;;
21503;SDS011;10913;51.992;9.228;2023-12-20T01:03:46;7.13;;;4.47;;
21503;SDS011;10913;51.992;9.228;2023-12-20T01:06:12;7.38;;;4.60;;
21503;SDS011;10913;51.992;9.228;2023-12-20T01:08:37;7.57;;;4.35;;
21503;SDS011;10913;51.992;9.228;2023-12-20T01:11:06;5.15;;;3.78;;
21503;SDS011;10913;51.992;9.228;2023-12-20T01:13:31;9.23;;;4.35;;
21503;SDS011;10913;51.992;9.228;2023-12-20T01:15:57;8.10;;;4.30;;
21503;SDS011;10913;51.992;9.228;2023-12-20T01:18:22;9.98;;;4.50;;
21503;SDS011;10913;51.992;9.228;2023-12-20T01:20:47;7.93;;;3.83;;
21503;SDS011;10913;51.992;9.228;2023-12-20T01:23:13;5.07;;;3.50;;
21503;SDS011;10913;51.992;9.228;2023-12-20T01:25:38;6.75;;;3.72;;
21503;SDS011;10913;51.992;9.228;2023-12-20T01:28:04;5.65;;;3.53;;
21503;SDS011;10913;51.992;9.228;2023-12-20T01:30:29;7.05;;;4.13;;
21503;SDS011;10913;51.992;9.228;2023-12-20T01:32:55;5.53;;;3.83;;
21503;SDS011;10913;51.992;9.228;2023-12-20T01:35:20;7.32;;;4.13;;
21503;SDS011;10913;51.992;9.228;2023-12-20T01:37:45;7.65;;;4.05;;
21503;SDS011;10913;51.992;9.228;2023-12-20T01:40:11;7.28;;;3.92;;
21503;SDS011;10913;51.992;9.228;2023-12-20T01:42:36;9.77;;;4.50;;
21503;SDS011;10913;51.992;9.228;2023-12-20T01:45:02;8.23;;;4.18;;
21503;SDS011;10913;51.992;9.228;2023-12-20T01:47:27;8.32;;;4.25;;
21503;SDS011;10913;51.992;9.228;2023-12-20T01:49:53;11.07;;;4.03;;
21503;SDS011;10913;51.992;9.228;2023-12-20T01:52:19;8.80;;;3.58;;
21503;SDS011;10913;51.992;9.228;2023-12-20T01:54:45;6.57;;;3.55;;
21503;SDS011;10913;51.992;9.228;2023-12-20T01:57:12;9.38;;;3.38;;
21503;SDS011;10913;51.992;9.228;2023-12-20T01:59:39;6.43;;;3.20;;
21503;SDS011;10913;51.992;9.228;2023-12-20T02:02:05;6.07;;;2.78;;
21503;SDS011;10913;51.992;9.228;2023-12-20T02:04:31;5.72;;;2.85;;
21503;SDS011;10913;51.992;9.228;2023-12-20T02:06:56;6.65;;;3.00;;
21503;SDS011;10913;51.992;9.228;2023-12-20T02:09:23;4.78;;;2.75;;
21503;SDS011;10913;51.992;9.228;2023-12-20T02:11:49;8.18;;;3.22;;
21503;SDS011;10913;51.992;9.228;2023-12-20T02:14:20;11.43;;;2.78;;
21503;SDS011;10913;51.992;9.228;2023-12-20T02:16:45;8.32;;;2.50;;
21503;SDS011;10913;51.992;9.228;2023-12-20T02:19:14;8.32;;;2.60;;
21503;SDS011;10913;51.992;9.228;2023-12-20T02:21:40;7.28;;;2.60;;
21503;SDS011;10913;51.992;9.228;2023-12-20T02:24:05;5.75;;;2.67;;
21503;SDS011;10913;51.992;9.228;2023-12-20T02:26:34;4.90;;;2.45;;
21503;SDS011;10913;51.992;9.228;2023-12-20T02:28:59;5.72;;;2.65;;
21503;SDS011;10913;51.992;9.228;2023-12-20T02:31:26;6.68;;;2.67;;
21503;SDS011;10913;51.992;9.228;2023-12-20T02:33:51;7.95;;;2.80;;
21503;SDS011;10913;51.992;9.228;2023-12-20T02:36:16;7.47;;;2.63;;
21503;SDS011;10913;51.992;9.228;2023-12-20T02:38:42;8.20;;;3.22;;
21503;SDS011;10913;51.992;9.228;2023-12-20T02:41:07;6.07;;;2.63;;
21503;SDS011;10913;51.992;9.228;2023-12-20T02:43:32;6.45;;;2.85;;
21503;SDS011;10913;51.992;9.228;2023-12-20T02:45:58;7.55;;;2.90;;
21503;SDS011;10913;51.992;9.228;2023-12-20T02:48:23;5.28;;;2.67;;
21503;SDS011;10913;51.992;9.228;2023-12-20T02:50:48;9.45;;;3.22;;
21503;SDS011;10913;51.992;9.228;2023-12-20T02:53:14;7.82;;;2.58;;
21503;SDS011;10913;51.992;9.228;2023-12-20T02:55:40;7.20;;;3.05;;
21503;SDS011;10913;51.992;9.228;2023-12-20T02:58:05;6.38;;;3.00;;
21503;SDS011;10913;51.992;9.228;2023-12-20T03:00:30;5.70;;;2.90;;
21503;SDS011;10913;51.992;9.228;2023-12-20T03:02:56;6.65;;;2.97;;
21503;SDS011;10913;51.992;9.228;2023-12-20T03:05:21;7.45;;;2.70;;
21503;SDS011;10913;51.992;9.228;2023-12-20T03:07:46;9.43;;;3.60;;
21503;SDS011;10913;51.992;9.228;2023-12-20T03:10:12;12.20;;;3.88;;
21503;SDS011;10913;51.992;9.228;2023-12-20T03:12:37;8.75;;;2.90;;
21503;SDS011;10913;51.992;9.228;2023-12-20T03:15:02;7.10;;;3.08;;
21503;SDS011;10913;51.992;9.228;2023-12-20T03:17:28;8.65;;;3.55;;
21503;SDS011;10913;51.992;9.228;2023-12-20T03:19:53;5.80;;;2.70;;
21503;SDS011;10913;51.992;9.228;2023-12-20T03:22:19;7.05;;;2.85;;
21503;SDS011;10913;51.992;9.228;2023-12-20T03:24:44;5.25;;;2.42;;
21503;SDS011;10913;51.992;9.228;2023-12-20T03:27:09;8.00;;;2.50;;
21503;SDS011;10913;51.992;9.228;2023-12-20T03:29:34;4.60;;;2.40;;
21503;SDS011;10913;51.992;9.228;2023-12-20T03:32:00;7.95;;;2.70;;
21503;SDS011;10913;51.992;9.228;2023-12-20T03:34:26;6.38;;;2.40;;
21503;SDS011;10913;51.992;9.228;2023-12-20T03:36:51;9.10;;;2.50;;
21503;SDS011;10913;51.992;9.228;2023-12-20T03:39:17;6.75;;;2.30;;
21503;SDS011;10913;51.992;9.228;2023-12-20T03:41:42;10.68;;;2.60;;
21503;SDS011;10913;51.992;9.228;2023-12-20T03:44:07;7.15;;;2.33;;
21503;SDS011;10913;51.992;9.228;2023-12-20T03:46:33;10.50;;;2.90;;
21503;SDS011;10913;51.992;9.228;2023-12-20T03:48:58;8.30;;;2.80;;
21503;SDS011;10913;51.992;9.228;2023-12-20T03:51:23;7.97;;;2.63;;
21503;SDS011;10913;51.992;9.228;2023-12-20T03:53:49;8.30;;;2.45;;
21503;SDS011;10913;51.992;9.228;2023-12-20T03:56:14;9.07;;;2.58;;
21503;SDS011;10913;51.992;9.228;2023-12-20T03:58:39;9.02;;;2.47;;
21503;SDS011;10913;51.992;9.228;2023-12-20T04:01:09;6.47;;;2.40;;
21503;SDS011;10913;51.992;9.228;2023-12-20T04:03:35;6.18;;;2.85;;
21503;SDS011;10913;51.992;9.228;2023-12-20T04:06:01;8.50;;;3.10;;
21503;SDS011;10913;51.992;9.228;2023-12-20T04:08:26;7.63;;;3.05;;
21503;SDS011;10913;51.992;9.228;2023-12-20T04:10:51;10.02;;;2.97;;
21503;SDS011;10913;51.992;9.228;2023-12-20T04:13:17;7.05;;;2.72;;
21503;SDS011;10913;51.992;9.228;2023-12-20T04:15:42;11.13;;;3.20;;
21503;SDS011;10913;51.992;9.228;2023-12-20T04:18:07;8.00;;;3.33;;
21503;SDS011;10913;51.992;9.228;2023-12-20T04:20:33;8.20;;;3.67;;
21503;SDS011;10913;51.992;9.228;2023-12-20T04:22:58;8.13;;;3.67;;
21503;SDS011;10913;51.992;9.228;2023-12-20T04:25:23;7.90;;;3.70;;
21503;SDS011;10913;51.992;9.228;2023-12-20T04:27:49;9.75;;;4.22;;
21503;SDS011;10913;51.992;9.228;2023-12-20T04:30:14;9.73;;;3.80;;
21503;SDS011;10913;51.992;9.228;2023-12-20T04:32:39;11.30;;;4.22;;
21503;SDS011;10913;51.992;9.228;2023-12-20T04:35:05;11.95;;;4.10;;
21503;SDS011;10913;51.992;9.228;2023-12-20T04:37:30;9.98;;;3.97;;
21503;SDS011;10913;51.992;9.228;2023-12-20T04:39:56;12.52;;;3.90;;
21503;SDS011;10913;51.992;9.228;2023-12-20T04:42:21;11.27;;;4.53;;
21503;SDS011;10913;51.992;9.228;2023-12-20T04:44:46;12.50;;;4.00;;
21503;SDS011;10913;51.992;9.228;2023-12-20T04:47:12;12.93;;;4.40;;
21503;SDS011;10913;51.992;9.228;2023-12-20T04:49:37;13.00;;;3.60;;
21503;SDS011;10913;51.992;9.228;2023-12-20T04:52:02;9.00;;;3.65;;
21503;SDS011;10913;51.992;9.228;2023-12-20T04:54:28;9.30;;;4.03;;
21503;SDS011;10913;51.992;9.228;2023-12-20T04:56:53;12.82;;;4.45;;
21503;SDS011;10913;51.992;9.228;2023-12-20T04:59:19;10.30;;;3.80;;
21503;SDS011;10913;51.992;9.228;2023-12-20T05:01:44;9.85;;;4.15;;
21503;SDS011;10913;51.992;9.228;2023-12-20T05:04:09;10.48;;;3.78;;
21503;SDS011;10913;51.992;9.228;2023-12-20T05:06:35;13.80;;;4.35;;
21503;SDS011;10913;51.992;9.228;2023-12-20T05:09:00;11.82;;;4.05;;
21503;SDS011;10913;51.992;9.228;2023-12-20T05:11:25;7.93;;;4.18;;
21503;SDS011;10913;51.992;9.228;2023-12-20T05:13:51;11.73;;;4.65;;
21503;SDS011;10913;51.992;9.228;2023-12-20T05:16:16;12.10;;;3.95;;
21503;SDS011;10913;51.992;9.228;2023-12-20T05:18:43;13.95;;;4.20;;
21503;SDS011;10913;51.992;9.228;2023-12-20T05:21:08;13.27;;;4.32;;
21503;SDS011;10913;51.992;9.228;2023-12-20T05:23:34;13.07;;;4.47;;
21503;SDS011;10913;51.992;9.228;2023-12-20T05:25:59;14.85;;;4.60;;
21503;SDS011;10913;51.992;9.228;2023-12-20T05:28:25;12.13;;;4.88;;
21503;SDS011;10913;51.992;9.228;2023-12-20T05:30:50;14.25;;;4.30;;
21503;SDS011;10913;51.992;9.228;2023-12-20T05:33:16;13.77;;;4.35;;
21503;SDS011;10913;51.992;9.228;2023-12-20T05:35:41;16.42;;;4.68;;
21503;SDS011;10913;51.992;9.228;2023-12-20T05:38:07;12.65;;;4.47;;
21503;SDS011;10913;51.992;9.228;2023-12-20T05:40:32;17.77;;;4.80;;
21503;SDS011;10913;51.992;9.228;2023-12-20T05:42:57;11.43;;;4.53;;
21503;SDS011;10913;51.992;9.228;2023-12-20T05:45:22;12.35;;;4.05;;
21503;SDS011;10913;51.992;9.228;2023-12-20T05:47:48;13.82;;;4.45;;
21503;SDS011;10913;51.992;9.228;2023-12-20T05:50:13;11.88;;;3.92;;
21503;SDS011;10913;51.992;9.228;2023-12-20T05:52:39;12.55;;;4.32;;
21503;SDS011;10913;51.992;9.228;2023-12-20T05:55:04;9.60;;;3.78;;
21503;SDS011;10913;51.992;9.228;2023-12-20T05:57:30;19.05;;;4.70;;
21503;SDS011;10913;51.992;9.228;2023-12-20T05:59:55;14.35;;;4.38;;
21503;SDS011;10913;51.992;9.228;2023-12-20T06:02:21;11.57;;;4.20;;
21503;SDS011;10913;51.992;9.228;2023-12-20T06:04:46;13.00;;;3.90;;
21503;SDS011;10913;51.992;9.228;2023-12-20T06:07:12;8.02;;;3.65;;
21503;SDS011;10913;51.992;9.228;2023-12-20T06:09:38;13.55;;;4.40;;
21503;SDS011;10913;51.992;9.228;2023-12-20T06:12:03;12.00;;;4.40;;
21503;SDS011;10913;51.992;9.228;2023-12-20T06:14:29;12.55;;;4.80;;
21503;SDS011;10913;51.992;9.228;2023-12-20T06:16:55;12.38;;;4.40;;
21503;SDS011;10913;51.992;9.228;2023-12-20T06:19:21;14.45;;;4.70;;
21503;SDS011;10913;51.992;9.228;2023-12-20T06:21:46;14.13;;;4.20;;
21503;SDS011;10913;51.992;9.228;2023-12-20T06:24:12;15.95;;;5.15;;
21503;SDS011;10913;51.992;9.228;2023-12-20T06:26:37;15.00;;;4.53;;
21503;SDS011;10913;51.992;9.228;2023-12-20T06:29:03;10.13;;;3.50;;
21503;SDS011;10913;51.992;9.228;2023-12-20T06:31:28;12.25;;;4.20;;
21503;SDS011;10913;51.992;9.228;2023-12-20T06:33:54;18.60;;;5.00;;
21503;SDS011;10913;51.992;9.228;2023-12-20T06:36:22;16.33;;;5.20;;
21503;SDS011;10913;51.992;9.228;2023-12-20T06:38:48;12.68;;;4.43;;
21503;SDS011;10913;51.992;9.228;2023-12-20T06:41:13;10.60;;;4.05;;
21503;SDS011;10913;51.992;9.228;2023-12-20T06:43:39;14.68;;;4.63;;
21503;SDS011;10913;51.992;9.228;2023-12-20T06:46:05;14.50;;;4.20;;
21503;SDS011;10913;51.992;9.228;2023-12-20T06:48:31;11.75;;;4.47;;
21503;SDS011;10913;51.992;9.228;2023-12-20T06:50:56;14.63;;;5.10;;
21503;SDS011;10913;51.992;9.228;2023-12-20T06:53:24;13.38;;;4.40;;
21503;SDS011;10913;51.992;9.228;2023-12-20T06:55:50;15.82;;;4.72;;
21503;SDS011;10913;51.992;9.228;2023-12-20T06:58:15;14.10;;;4.15;;
21503;SDS011;10913;51.992;9.228;2023-12-20T07:00:41;13.60;;;4.35;;
21503;SDS011;10913;51.992;9.228;2023-12-20T07:03:07;14.30;;;4.45;;
21503;SDS011;10913;51.992;9.228;2023-12-20T07:05:33;11.50;;;4.10;;
21503;SDS011;10913;51.992;9.228;2023-12-20T07:07:59;15.10;;;4.88;;
21503;SDS011;10913;51.992;9.228;2023-12-20T07:10:24;13.32;;;4.55;;
21503;SDS011;10913;51.992;9.228;2023-12-20T07:12:50;11.85;;;4.22;;
21503;SDS011;10913;51.992;9.228;2023-12-20T07:15:16;12.43;;;4.72;;
21503;SDS011;10913;51.992;9.228;2023-12-20T07:17:41;12.32;;;4.47;;
21503;SDS011;10913;51.992;9.228;2023-12-20T07:20:08;12.98;;;4.60;;
21503;SDS011;10913;51.992;9.228;2023-12-20T07:22:36;10.43;;;4.10;;
21503;SDS011;10913;51.992;9.228;2023-12-20T07:25:01;14.15;;;4.75;;
21503;SDS011;10913;51.992;9.228;2023-12-20T07:27:26;14.15;;;5.30;;
21503;SDS011;10913;51.992;9.228;2023-12-20T07:29:52;16.27;;;5.00;;
21503;SDS011;10913;51.992;9.228;2023-12-20T07:32:18;17.80;;;5.10;;
21503;SDS011;10913;51.992;9.228;2023-12-20T07:34:43;13.15;;;4.47;;
21503;SDS011;10913;51.992;9.228;2023-12-20T07:37:09;16.67;;;4.72;;
21503;SDS011;10913;51.992;9.228;2023-12-20T07:39:39;17.63;;;5.30;;
21503;SDS011;10913;51.992;9.228;2023-12-20T07:42:05;19.40;;;5.68;;
21503;SDS011;10913;51.992;9.228;2023-12-20T07:44:30;15.55;;;5.25;;
21503;SDS011;10913;51.992;9.228;2023-12-20T07:46:56;15.18;;;5.55;;
21503;SDS011;10913;51.992;9.228;2023-12-20T07:49:22;13.85;;;4.88;;
21503;SDS011;10913;51.992;9.228;2023-12-20T07:51:48;11.35;;;4.57;;
21503;SDS011;10913;51.992;9.228;2023-12-20T07:54:13;14.00;;;5.40;;
21503;SDS011;10913;51.992;9.228;2023-12-20T07:56:39;20.10;;;5.60;;
21503;SDS011;10913;51.992;9.228;2023-12-20T07:59:05;14.60;;;5.30;;
21503;SDS011;10913;51.992;9.228;2023-12-20T08:01:30;13.95;;;5.80;;
21503;SDS011;10913;51.992;9.228;2023-12-20T08:03:56;18.00;;;5.18;;
21503;SDS011;10913;51.992;9.228;2023-12-20T08:06:22;15.32;;;4.88;;
21503;SDS011;10913;51.992;9.228;2023-12-20T08:08:47;10.93;;;4.78;;
21503;SDS011;10913;51.992;9.228;2023-12-20T08:11:12;17.83;;;5.40;;
21503;SDS011;10913;51.992;9.228;2023-12-20T08:13:38;13.95;;;5.05;;
21503;SDS011;10913;51.992;9.228;2023-12-20T08:16:03;14.68;;;4.75;;
21503;SDS011;10913;51.992;9.228;2023-12-20T08:18:29;15.52;;;4.85;;
21503;SDS011;10913;51.992;9.228;2023-12-20T08:20:54;16.80;;;5.30;;
21503;SDS011;10913;51.992;9.228;2023-12-20T08:23:20;10.95;;;4.75;;
21503;SDS011;10913;51.992;9.228;2023-12-20T08:25:46;14.63;;;5.13;;
21503;SDS011;10913;51.992;9.228;2023-12-20T08:28:11;12.70;;;4.80;;
21503;SDS011;10913;51.992;9.228;2023-12-20T08:30:37;12.82;;;4.75;;
21503;SDS011;10913;51.992;9.228;2023-12-20T08:33:02;14.50;;;5.38;;
21503;SDS011;10913;51.992;9.228;2023-12-20T08:35:28;13.75;;;7.00;;
21503;SDS011;10913;51.992;9.228;2023-12-20T08:37:53;19.52;;;8.90;;
21503;SDS011;10913;51.992;9.228;2023-12-20T08:40:18;13.73;;;5.60;;
21503;SDS011;10913;51.992;9.228;2023-12-20T08:42:45;16.38;;;5.78;;
21503;SDS011;10913;51.992;9.228;2023-12-20T08:45:10;16.83;;;6.95;;
21503;SDS011;10913;51.992;9.228;2023-12-20T08:47:36;17.08;;;6.47;;
21503;SDS011;10913;51.992;9.228;2023-12-20T08:50:02;16.55;;;6.63;;
21503;SDS011;10913;51.992;9.228;2023-12-20T08:52:28;18.45;;;6.43;;
21503;SDS011;10913;51.992;9.228;2023-12-20T08:54:54;15.70;;;5.82;;
21503;SDS011;10913;51.992;9.228;2023-12-20T08:57:19;17.48;;;6.38;;
21503;SDS011;10913;51.992;9.228;2023-12-20T08:59:46;14.15;;;5.57;;
21503;SDS011;10913;51.992;9.228;2023-12-20T09:02:12;16.10;;;5.20;;
21503;SDS011;10913;51.992;9.228;2023-12-20T09:04:37;15.38;;;5.40;;
21503;SDS011;10913;51.992;9.228;2023-12-20T09:07:03;15.43;;;5.65;;
21503;SDS011;10913;51.992;9.228;2023-12-20T09:09:28;16.38;;;6.00;;
21503;SDS011;10913;51.992;9.228;2023-12-20T09:11:54;17.65;;;5.93;;
21503;SDS011;10913;51.992;9.228;2023-12-20T09:14:19;13.90;;;5.82;;
21503;SDS011;10913;51.992;9.228;2023-12-20T09:16:45;16.75;;;7.72;;
21503;SDS011;10913;51.992;9.228;2023-12-20T09:19:10;14.45;;;6.50;;
21503;SDS011;10913;51.992;9.228;2023-12-20T09:21:35;16.20;;;6.50;;
21503;SDS011;10913;51.992;9.228;2023-12-20T09:24:01;19.92;;;8.15;;
21503;SDS011;10913;51.992;9.228;2023-12-20T09:26:26;14.52;;;6.50;;
21503;SDS011;10913;51.992;9.228;2023-12-20T09:28:51;15.60;;;8.00;;
21503;SDS011;10913;51.992;9.228;2023-12-20T09:31:17;18.80;;;7.38;;
21503;SDS011;10913;51.992;9.228;2023-12-20T09:33:42;18.60;;;7.28;;
21503;SDS011;10913;51.992;9.228;2023-12-20T09:36:07;19.45;;;7.63;;
21503;SDS011;10913;51.992;9.228;2023-12-20T09:38:33;16.58;;;7.55;;
21503;SDS011;10913;51.992;9.228;2023-12-20T09:40:58;15.13;;;8.75;;
21503;SDS011;10913;51.992;9.228;2023-12-20T09:43:24;13.27;;;7.43;;
21503;SDS011;10913;51.992;9.228;2023-12-20T09:45:52;13.70;;;7.57;;
21503;SDS011;10913;51.992;9.228;2023-12-20T09:48:18;16.52;;;8.13;;
21503;SDS011;10913;51.992;9.228;2023-12-20T09:50:44;14.32;;;7.38;;
21503;SDS011;10913;51.992;9.228;2023-12-20T09:53:12;17.23;;;8.25;;
21503;SDS011;10913;51.992;9.228;2023-12-20T09:55:41;16.55;;;7.38;;
21503;SDS011;10913;51.992;9.228;2023-12-20T09:58:07;13.20;;;6.90;;
21503;SDS011;10913;51.992;9.228;2023-12-20T10:00:34;13.82;;;6.82;;
21503;SDS011;10913;51.992;9.228;2023-12-20T10:03:00;9.88;;;5.80;;
21503;SDS011;10913;51.992;9.228;2023-12-20T10:05:26;16.55;;;6.90;;
21503;SDS011;10913;51.992;9.228;2023-12-20T10:07:56;12.38;;;6.30;;
21503;SDS011;10913;51.992;9.228;2023-12-20T10:10:22;14.20;;;6.72;;
21503;SDS011;10913;51.992;9.228;2023-12-20T10:13:04;12.05;;;5.93;;
21503;SDS011;10913;51.992;9.228;2023-12-20T10:15:36;11.80;;;6.28;;
21503;SDS011;10913;51.992;9.228;2023-12-20T10:18:02;13.35;;;6.80;;
21503;SDS011;10913;51.992;9.228;2023-12-20T10:20:29;13.02;;;6.82;;
21503;SDS011;10913;51.992;9.228;2023-12-20T10:22:55;15.25;;;7.00;;
21503;SDS011;10913;51.992;9.228;2023-12-20T10:25:21;14.95;;;6.43;;
21503;SDS011;10913;51.992;9.228;2023-12-20T10:27:47;14.48;;;7.10;;
21503;SDS011;10913;51.992;9.228;2023-12-20T10:30:13;20.50;;;7.35;;
21503;SDS011;10913;51.992;9.228;2023-12-20T10:32:39;13.90;;;6.65;;
21503;SDS011;10913;51.992;9.228;2023-12-20T10:35:06;13.90;;;7.18;;
21503;SDS011;10913;51.992;9.228;2023-12-20T10:37:34;15.27;;;6.90;;
21503;SDS011;10913;51.992;9.228;2023-12-20T10:40:01;14.10;;;6.43;;
21503;SDS011;10913;51.992;9.228;2023-12-20T10:42:28;12.55;;;5.88;;
21503;SDS011;10913;51.992;9.228;2023-12-20T10:44:55;14.05;;;6.90;;
21503;SDS011;10913;51.992;9.228;2023-12-20T10:47:21;14.60;;;6.50;;
21503;SDS011;10913;51.992;9.228;2023-12-20T10:49:47;13.98;;;6.78;;
21503;SDS011;10913;51.992;9.228;2023-12-20T10:52:13;14.88;;;7.00;;
21503;SDS011;10913;51.992;9.228;2023-12-20T10:54:42;14.50;;;7.20;;
21503;SDS011;10913;51.992;9.228;2023-12-20T10:57:07;17.95;;;7.07;;
21503;SDS011;10913;51.992;9.228;2023-12-20T10:59:34;14.30;;;6.53;;
21503;SDS011;10913;51.992;9.228;2023-12-20T11:02:04;15.38;;;7.55;;
21503;SDS011;10913;51.992;9.228;2023-12-20T11:04:44;17.20;;;7.55;;
21503;SDS011;10913;51.992;9.228;2023-12-20T11:07:24;17.67;;;7.00;;
21503;SDS011;10913;51.992;9.228;2023-12-20T11:09:58;15.52;;;7.07;;
21503;SDS011;10913;51.992;9.228;2023-12-20T11:15:11;11.48;;;6.43;;
21503;SDS011;10913;51.992;9.228;2023-12-20T11:17:38;13.02;;;6.65;;
21503;SDS011;10913;51.992;9.228;2023-12-20T11:20:05;11.82;;;6.10;;
21503;SDS011;10913;51.992;9.228;2023-12-20T11:22:36;14.38;;;6.88;;
21503;SDS011;10913;51.992;9.228;2023-12-20T11:25:04;13.32;;;6.68;;
21503;SDS011;10913;51.992;9.228;2023-12-20T11:27:34;13.35;;;6.50;;
21503;SDS011;10913;51.992;9.228;2023-12-20T11:30:02;12.48;;;6.38;;
21503;SDS011;10913;51.992;9.228;2023-12-20T11:32:31;12.43;;;5.80;;
21503;SDS011;10913;51.992;9.228;2023-12-20T11:40:03;9.32;;;4.78;;
21503;SDS011;10913;51.992;9.228;2023-12-20T11:42:49;9.20;;;4.40;;
21503;SDS011;10913;51.992;9.228;2023-12-20T11:45:19;11.50;;;4.55;;
21503;SDS011;10913;51.992;9.228;2023-12-20T11:47:49;9.00;;;4.07;;
21503;SDS011;10913;51.992;9.228;2023-12-20T11:50:15;9.65;;;4.03;;
21503;SDS011;10913;51.992;9.228;2023-12-20T11:52:41;7.53;;;3.95;;
21503;SDS011;10913;51.992;9.228;2023-12-20T11:55:06;7.40;;;4.18;;
21503;SDS011;10913;51.992;9.228;2023-12-20T11:57:32;9.73;;;3.80;;
21503;SDS011;10913;51.992;9.228;2023-12-20T11:59:58;7.53;;;3.60;;
21503;SDS011;10913;51.992;9.228;2023-12-20T12:02:24;9.50;;;4.03;;
21503;SDS011;10913;51.992;9.228;2023-12-20T12:04:49;10.52;;;3.97;;
21503;SDS011;10913;51.992;9.228;2023-12-20T12:07:18;10.15;;;3.63;;
21503;SDS011;10913;51.992;9.228;2023-12-20T12:09:43;8.88;;;3.88;;
21503;SDS011;10913;51.992;9.228;2023-12-20T12:12:10;10.38;;;3.75;;
21503;SDS011;10913;51.992;9.228;2023-12-20T12:14:37;10.18;;;3.40;;
21503;SDS011;10913;51.992;9.228;2023-12-20T12:17:03;9.52;;;3.30;;
21503;SDS011;10913;51.992;9.228;2023-12-20T12:19:29;9.27;;;3.50;;
21503;SDS011;10913;51.992;9.228;2023-12-20T12:22:07;8.77;;;3.30;;
21503;SDS011;10913;51.992;9.228;2023-12-20T12:24:44;8.88;;;3.28;;
21503;SDS011;10913;51.992;9.228;2023-12-20T12:27:10;8.73;;;3.38;;
21503;SDS011;10913;51.992;9.228;2023-12-20T12:29:37;9.80;;;3.00;;
21503;SDS011;10913;51.992;9.228;2023-12-20T12:32:06;11.77;;;3.20;;
21503;SDS011;10913;51.992;9.228;2023-12-20T12:34:33;12.30;;;3.60;;
21503;SDS011;10913;51.992;9.228;2023-12-20T12:36:59;11.27;;;3.60;;
21503;SDS011;10913;51.992;9.228;2023-12-20T12:39:25;8.10;;;3.22;;
21503;SDS011;10913;51.992;9.228;2023-12-20T12:41:50;10.57;;;3.53;;
21503;SDS011;10913;51.992;9.228;2023-12-20T12:44:16;10.10;;;3.40;;
21503;SDS011;10913;51.992;9.228;2023-12-20T12:46:43;9.32;;;3.30;;
21503;SDS011;10913;51.992;9.228;2023-12-20T12:49:09;8.27;;;3.50;;
21503;SDS011;10913;51.992;9.228;2023-12-20T12:51:34;11.02;;;3.22;;
21503;SDS011;10913;51.992;9.228;2023-12-20T12:53:59;6.38;;;2.80;;
21503;SDS011;10913;51.992;9.228;2023-12-20T12:56:25;8.63;;;3.08;;
21503;SDS011;10913;51.992;9.228;2023-12-20T12:58:51;13.68;;;3.55;;
21503;SDS011;10913;51.992;9.228;2023-12-20T13:01:16;9.60;;;3.47;;
21503;SDS011;10913;51.992;9.228;2023-12-20T13:03:41;11.00;;;3.00;;
21503;SDS011;10913;51.992;9.228;2023-12-20T13:06:07;8.50;;;2.97;;
21503;SDS011;10913;51.992;9.228;2023-12-20T13:08:34;10.85;;;3.17;;
21503;SDS011;10913;51.992;9.228;2023-12-20T13:10:59;9.27;;;3.13;;
21503;SDS011;10913;51.992;9.228;2023-12-20T13:13:26;9.55;;;3.10;;
21503;SDS011;10913;51.992;9.228;2023-12-20T13:15:52;7.72;;;2.90;;
21503;SDS011;10913;51.992;9.228;2023-12-20T13:18:20;8.95;;;3.28;;
21503;SDS011;10913;51.992;9.228;2023-12-20T13:20:49;7.57;;;2.90;;
21503;SDS011;10913;51.992;9.228;2023-12-20T13:23:18;15.38;;;3.50;;
21503;SDS011;10913;51.992;9.228;2023-12-20T13:25:44;8.52;;;3.05;;
21503;SDS011;10913;51.992;9.228;2023-12-20T13:28:12;14.30;;;3.28;;
21503;SDS011;10913;51.992;9.228;2023-12-20T13:30:38;9.55;;;3.10;;
21503;SDS011;10913;51.992;9.228;2023-12-20T13:33:04;7.82;;;2.45;;
21503;SDS011;10913;51.992;9.228;2023-12-20T13:35:30;3.70;;;1.58;;
21503;SDS011;10913;51.992;9.228;2023-12-20T13:37:55;3.25;;;1.20;;
21503;SDS011;10913;51.992;9.228;2023-12-20T13:40:22;2.88;;;1.20;;
21503;SDS011;10913;51.992;9.228;2023-12-20T13:42:47;3.25;;;1.10;;
21503;SDS011;10913;51.992;9.228;2023-12-20T13:45:13;3.88;;;1.05;;
21503;SDS011;10913;51.992;9.228;2023-12-20T13:47:38;4.60;;;1.80;;
21503;SDS011;10913;51.992;9.228;2023-12-20T13:50:04;3.10;;;1.13;;
21503;SDS011;10913;51.992;9.228;2023-12-20T13:52:30;3.40;;;1.38;;
21503;SDS011;10913;51.992;9.228;2023-12-20T13:54:55;4.00;;;1.20;;
21503;SDS011;10913;51.992;9.228;2023-12-20T13:57:21;5.18;;;1.33;;
21503;SDS011;10913;51.992;9.228;2023-12-20T13:59:46;4.57;;;1.30;;
21503;SDS011;10913;51.992;9.228;2023-12-20T14:02:11;3.47;;;1.40;;
21503;SDS011;10913;51.992;9.228;2023-12-20T14:04:37;8.25;;;1.40;;
21503;SDS011;10913;51.992;9.228;2023-12-20T14:07:04;6.78;;;1.63;;
21503;SDS011;10913;51.992;9.228;2023-12-20T14:09:29;3.35;;;1.30;;
21503;SDS011;10913;51.992;9.228;2023-12-20T14:11:55;3.67;;;1.13;;
21503;SDS011;10913;51.992;9.228;2023-12-20T14:14:20;3.63;;;1.40;;
21503;SDS011;10913;51.992;9.228;2023-12-20T14:16:45;4.00;;;1.30;;
21503;SDS011;10913;51.992;9.228;2023-12-20T14:19:11;3.80;;;1.27;;
21503;SDS011;10913;51.992;9.228;2023-12-20T14:21:37;5.05;;;1.40;;
21503;SDS011;10913;51.992;9.228;2023-12-20T14:24:02;3.38;;;1.20;;
21503;SDS011;10913;51.992;9.228;2023-12-20T14:26:29;6.38;;;1.35;;
21503;SDS011;10913;51.992;9.228;2023-12-20T14:28:54;6.75;;;1.58;;
21503;SDS011;10913;51.992;9.228;2023-12-20T14:31:20;5.18;;;1.23;;
21503;SDS011;10913;51.992;9.228;2023-12-20T14:33:45;5.47;;;1.48;;
21503;SDS011;10913;51.992;9.228;2023-12-20T14:36:11;3.10;;;1.33;;
21503;SDS011;10913;51.992;9.228;2023-12-20T14:38:36;5.57;;;1.65;;
21503;SDS011;10913;51.992;9.228;2023-12-20T14:41:02;3.35;;;1.40;;